sensor_id;sensor_type;location;lat;lon;timestamp;P1;durP1;ratioP1;P2;durP2;ratioP2
24751;SDS011;27246;52.376;4.628;2023-05-07T00:04:19;21.88;;;18.13;;
24751;SDS011;27246;52.376;4.628;2023-05-07T00:09:21;20.23;;;18.02;;
24751;SDS011;27246;52.376;4.628;2023-05-07T00:14:23;20.23;;;18.23;;
24751;SDS011;27246;52.376;4.628;2023-05-07T00:19:24;21.92;;;19.48;;
24751;SDS011;27246;52.376;4.628;2023-05-07T00:24:26;22.25;;;19.33;;
24751;SDS011;27246;52.376;4.628;2023-05-07T00:29:28;21.48;;;19.27;;
24751;SDS011;27246;52.376;4.628;2023-05-07T00:34:29;21.45;;;19.27;;
24751;SDS011;27246;52.376;4.628;2023-05-07T00:39:31;23.15;;;20.70;;
24751;SDS011;27246;52.376;4.628;2023-05-07T00:44:33;25.73;;;23.02;;
24751;SDS011;27246;52.376;4.628;2023-05-07T00:49:37;25.35;;;22.77;;
24751;SDS011;27246;52.376;4.628;2023-05-07T00:54:42;27.83;;;24.70;;
24751;SDS011;27246;52.376;4.628;2023-05-07T00:59:44;26.70;;;23.80;;
24751;SDS011;27246;52.376;4.628;2023-05-07T01:04:46;28.02;;;25.02;;
24751;SDS011;27246;52.376;4.628;2023-05-07T01:09:48;30.75;;;27.20;;
24751;SDS011;27246;52.376;4.628;2023-05-07T01:14:54;29.17;;;26.08;;
24751;SDS011;27246;52.376;4.628;2023-05-07T01:19:56;28.98;;;25.65;;
24751;SDS011;27246;52.376;4.628;2023-05-07T01:24:58;32.38;;;27.95;;
24751;SDS011;27246;52.376;4.628;2023-05-07T01:30:04;29.88;;;26.05;;
24751;SDS011;27246;52.376;4.628;2023-05-07T01:35:07;32.35;;;27.27;;
24751;SDS011;27246;52.376;4.628;2023-05-07T01:40:12;33.90;;;27.67;;
24751;SDS011;27246;52.376;4.628;2023-05-07T01:45:14;34.17;;;27.13;;
24751;SDS011;27246;52.376;4.628;2023-05-07T01:50:16;31.73;;;27.63;;
24751;SDS011;27246;52.376;4.628;2023-05-07T01:55:21;38.83;;;31.00;;
24751;SDS011;27246;52.376;4.628;2023-05-07T02:00:23;35.55;;;30.58;;
24751;SDS011;27246;52.376;4.628;2023-05-07T02:05:25;38.60;;;31.20;;
24751;SDS011;27246;52.376;4.628;2023-05-07T02:10:33;36.80;;;30.15;;
24751;SDS011;27246;52.376;4.628;2023-05-07T02:15:35;35.90;;;30.13;;
24751;SDS011;27246;52.376;4.628;2023-05-07T02:20:38;36.88;;;30.67;;
24751;SDS011;27246;52.376;4.628;2023-05-07T02:25:40;35.80;;;30.88;;
24751;SDS011;27246;52.376;4.628;2023-05-07T02:30:42;33.90;;;29.60;;
24751;SDS011;27246;52.376;4.628;2023-05-07T02:35:44;36.58;;;31.40;;
24751;SDS011;27246;52.376;4.628;2023-05-07T02:40:48;33.40;;;29.30;;
24751;SDS011;27246;52.376;4.628;2023-05-07T02:46:05;33.67;;;29.92;;
24751;SDS011;27246;52.376;4.628;2023-05-07T02:51:12;31.77;;;28.25;;
24751;SDS011;27246;52.376;4.628;2023-05-07T02:56:16;33.72;;;26.38;;
24751;SDS011;27246;52.376;4.628;2023-05-07T03:01:17;28.20;;;25.20;;
24751;SDS011;27246;52.376;4.628;2023-05-07T03:06:26;24.98;;;22.30;;
24751;SDS011;27246;52.376;4.628;2023-05-07T03:11:28;25.15;;;22.45;;
24751;SDS011;27246;52.376;4.628;2023-05-07T03:16:30;25.88;;;22.52;;
24751;SDS011;27246;52.376;4.628;2023-05-07T03:21:32;24.85;;;19.55;;
24751;SDS011;27246;52.376;4.628;2023-05-07T03:26:35;19.90;;;17.80;;
24751;SDS011;27246;52.376;4.628;2023-05-07T03:31:37;20.30;;;17.65;;
24751;SDS011;27246;52.376;4.628;2023-05-07T03:36:39;17.63;;;15.75;;
24751;SDS011;27246;52.376;4.628;2023-05-07T03:41:43;18.00;;;16.13;;
24751;SDS011;27246;52.376;4.628;2023-05-07T03:46:45;16.50;;;14.57;;
24751;SDS011;27246;52.376;4.628;2023-05-07T03:51:47;15.73;;;14.13;;
24751;SDS011;27246;52.376;4.628;2023-05-07T03:56:48;13.98;;;11.90;;
24751;SDS011;27246;52.376;4.628;2023-05-07T04:01:51;13.40;;;10.68;;
24751;SDS011;27246;52.376;4.628;2023-05-07T04:06:56;14.27;;;10.77;;
24751;SDS011;27246;52.376;4.628;2023-05-07T04:11:58;12.13;;;10.98;;
24751;SDS011;27246;52.376;4.628;2023-05-07T04:16:59;12.57;;;10.30;;
24751;SDS011;27246;52.376;4.628;2023-05-07T04:22:02;10.73;;;9.63;;
24751;SDS011;27246;52.376;4.628;2023-05-07T04:27:04;10.70;;;9.45;;
24751;SDS011;27246;52.376;4.628;2023-05-07T04:32:08;10.73;;;9.60;;
24751;SDS011;27246;52.376;4.628;2023-05-07T04:37:13;11.15;;;10.02;;
24751;SDS011;27246;52.376;4.628;2023-05-07T04:42:16;10.32;;;9.02;;
24751;SDS011;27246;52.376;4.628;2023-05-07T04:47:21;12.15;;;9.57;;
24751;SDS011;27246;52.376;4.628;2023-05-07T04:52:27;10.18;;;9.18;;
24751;SDS011;27246;52.376;4.628;2023-05-07T04:57:29;10.63;;;9.35;;
24751;SDS011;27246;52.376;4.628;2023-05-07T05:02:31;10.10;;;9.05;;
24751;SDS011;27246;52.376;4.628;2023-05-07T05:07:33;11.50;;;8.32;;
24751;SDS011;27246;52.376;4.628;2023-05-07T05:12:36;9.77;;;8.15;;
24751;SDS011;27246;52.376;4.628;2023-05-07T05:17:39;11.10;;;8.93;;
24751;SDS011;27246;52.376;4.628;2023-05-07T05:22:42;9.60;;;8.60;;
24751;SDS011;27246;52.376;4.628;2023-05-07T05:27:46;12.52;;;9.38;;
24751;SDS011;27246;52.376;4.628;2023-05-07T05:32:48;11.80;;;8.90;;
24751;SDS011;27246;52.376;4.628;2023-05-07T05:37:49;10.18;;;8.88;;
24751;SDS011;27246;52.376;4.628;2023-05-07T05:42:55;14.13;;;10.20;;
24751;SDS011;27246;52.376;4.628;2023-05-07T05:47:59;10.32;;;9.30;;
24751;SDS011;27246;52.376;4.628;2023-05-07T05:53:02;10.13;;;9.13;;
24751;SDS011;27246;52.376;4.628;2023-05-07T05:58:04;10.63;;;9.57;;
24751;SDS011;27246;52.376;4.628;2023-05-07T06:03:10;12.90;;;9.73;;
24751;SDS011;27246;52.376;4.628;2023-05-07T06:08:12;12.68;;;10.45;;
24751;SDS011;27246;52.376;4.628;2023-05-07T06:13:16;11.25;;;10.23;;
24751;SDS011;27246;52.376;4.628;2023-05-07T06:18:18;13.00;;;10.68;;
24751;SDS011;27246;52.376;4.628;2023-05-07T06:23:20;12.57;;;11.32;;
24751;SDS011;27246;52.376;4.628;2023-05-07T06:28:23;13.50;;;11.77;;
24751;SDS011;27246;52.376;4.628;2023-05-07T06:33:25;14.75;;;13.20;;
24751;SDS011;27246;52.376;4.628;2023-05-07T06:38:27;17.00;;;15.15;;
24751;SDS011;27246;52.376;4.628;2023-05-07T06:43:29;17.35;;;15.57;;
24751;SDS011;27246;52.376;4.628;2023-05-07T06:48:48;17.65;;;15.85;;
24751;SDS011;27246;52.376;4.628;2023-05-07T06:53:49;19.65;;;17.52;;
24751;SDS011;27246;52.376;4.628;2023-05-07T06:58:51;17.45;;;15.82;;
24751;SDS011;27246;52.376;4.628;2023-05-07T07:03:54;19.85;;;17.83;;
24751;SDS011;27246;52.376;4.628;2023-05-07T07:08:57;18.48;;;16.58;;
24751;SDS011;27246;52.376;4.628;2023-05-07T07:13:59;19.15;;;17.33;;
24751;SDS011;27246;52.376;4.628;2023-05-07T07:19:04;19.17;;;17.17;;
24751;SDS011;27246;52.376;4.628;2023-05-07T07:24:06;19.80;;;17.70;;
24751;SDS011;27246;52.376;4.628;2023-05-07T07:29:07;18.42;;;16.60;;
24751;SDS011;27246;52.376;4.628;2023-05-07T07:34:09;18.52;;;16.67;;
24751;SDS011;27246;52.376;4.628;2023-05-07T07:39:12;18.92;;;16.88;;
24751;SDS011;27246;52.376;4.628;2023-05-07T07:44:14;17.35;;;15.55;;
24751;SDS011;27246;52.376;4.628;2023-05-07T07:49:22;15.90;;;14.35;;
24751;SDS011;27246;52.376;4.628;2023-05-07T07:54:23;17.17;;;14.35;;
24751;SDS011;27246;52.376;4.628;2023-05-07T07:59:26;16.50;;;14.70;;
24751;SDS011;27246;52.376;4.628;2023-05-07T08:04:28;16.70;;;13.88;;
24751;SDS011;27246;52.376;4.628;2023-05-07T08:09:32;14.88;;;13.35;;
24751;SDS011;27246;52.376;4.628;2023-05-07T08:14:35;14.93;;;12.93;;
24751;SDS011;27246;52.376;4.628;2023-05-07T08:19:40;13.80;;;12.10;;
24751;SDS011;27246;52.376;4.628;2023-05-07T08:24:45;14.82;;;12.25;;
24751;SDS011;27246;52.376;4.628;2023-05-07T08:29:47;14.52;;;13.02;;
24751;SDS011;27246;52.376;4.628;2023-05-07T08:34:54;11.82;;;10.68;;
24751;SDS011;27246;52.376;4.628;2023-05-07T08:39:56;13.73;;;12.20;;
24751;SDS011;27246;52.376;4.628;2023-05-07T08:45:04;12.77;;;11.45;;
24751;SDS011;27246;52.376;4.628;2023-05-07T08:50:11;12.85;;;11.32;;
24751;SDS011;27246;52.376;4.628;2023-05-07T08:55:13;11.98;;;10.77;;
24751;SDS011;27246;52.376;4.628;2023-05-07T09:00:17;12.32;;;11.02;;
24751;SDS011;27246;52.376;4.628;2023-05-07T09:05:22;12.25;;;11.05;;
24751;SDS011;27246;52.376;4.628;2023-05-07T09:10:25;12.20;;;11.00;;
24751;SDS011;27246;52.376;4.628;2023-05-07T09:15:28;14.20;;;11.60;;
24751;SDS011;27246;52.376;4.628;2023-05-07T09:20:30;13.65;;;12.10;;
24751;SDS011;27246;52.376;4.628;2023-05-07T09:25:33;13.43;;;11.45;;
24751;SDS011;27246;52.376;4.628;2023-05-07T09:30:41;14.55;;;11.70;;
24751;SDS011;27246;52.376;4.628;2023-05-07T09:35:46;14.95;;;12.25;;
24751;SDS011;27246;52.376;4.628;2023-05-07T09:41:06;10.90;;;9.70;;
24751;SDS011;27246;52.376;4.628;2023-05-07T09:46:28;15.45;;;10.50;;
24751;SDS011;27246;52.376;4.628;2023-05-07T09:51:39;14.75;;;11.20;;
24751;SDS011;27246;52.376;4.628;2023-05-07T09:56:45;11.50;;;10.20;;
24751;SDS011;27246;52.376;4.628;2023-05-07T10:01:54;11.50;;;9.93;;
24751;SDS011;27246;52.376;4.628;2023-05-07T10:07:00;11.38;;;7.95;;
24751;SDS011;27246;52.376;4.628;2023-05-07T10:12:07;10.60;;;7.30;;
24751;SDS011;27246;52.376;4.628;2023-05-07T10:17:10;11.55;;;8.57;;
24751;SDS011;27246;52.376;4.628;2023-05-07T10:22:14;11.82;;;9.10;;
24751;SDS011;27246;52.376;4.628;2023-05-07T10:27:19;10.15;;;8.15;;
24751;SDS011;27246;52.376;4.628;2023-05-07T10:32:40;12.68;;;9.80;;
24751;SDS011;27246;52.376;4.628;2023-05-07T10:37:53;10.90;;;9.35;;
24751;SDS011;27246;52.376;4.628;2023-05-07T10:43:04;9.77;;;7.30;;
24751;SDS011;27246;52.376;4.628;2023-05-07T10:48:19;7.97;;;6.43;;
24751;SDS011;27246;52.376;4.628;2023-05-07T10:53:37;10.05;;;7.28;;
24751;SDS011;27246;52.376;4.628;2023-05-07T10:58:44;12.48;;;7.65;;
24751;SDS011;27246;52.376;4.628;2023-05-07T11:04:12;9.85;;;8.23;;
24751;SDS011;27246;52.376;4.628;2023-05-07T11:09:21;9.43;;;8.07;;
24751;SDS011;27246;52.376;4.628;2023-05-07T11:19:55;12.18;;;9.90;;
24751;SDS011;27246;52.376;4.628;2023-05-07T11:25:06;10.32;;;8.55;;
24751;SDS011;27246;52.376;4.628;2023-05-07T11:30:09;9.50;;;7.68;;
24751;SDS011;27246;52.376;4.628;2023-05-07T11:35:12;7.93;;;4.80;;
24751;SDS011;27246;52.376;4.628;2023-05-07T11:40:17;7.63;;;4.90;;
24751;SDS011;27246;52.376;4.628;2023-05-07T11:45:24;8.70;;;3.78;;
24751;SDS011;27246;52.376;4.628;2023-05-07T11:50:26;9.55;;;4.30;;
24751;SDS011;27246;52.376;4.628;2023-05-07T11:55:28;6.15;;;3.67;;
24751;SDS011;27246;52.376;4.628;2023-05-07T12:00:30;8.02;;;3.90;;
24751;SDS011;27246;52.376;4.628;2023-05-07T12:05:31;9.55;;;4.07;;
24751;SDS011;27246;52.376;4.628;2023-05-07T12:10:33;6.75;;;4.53;;
24751;SDS011;27246;52.376;4.628;2023-05-07T12:15:35;9.40;;;3.95;;
24751;SDS011;27246;52.376;4.628;2023-05-07T12:20:37;10.48;;;3.90;;
24751;SDS011;27246;52.376;4.628;2023-05-07T12:25:39;5.65;;;3.53;;
24751;SDS011;27246;52.376;4.628;2023-05-07T12:30:48;5.97;;;3.70;;
24751;SDS011;27246;52.376;4.628;2023-05-07T12:35:53;12.48;;;10.18;;
24751;SDS011;27246;52.376;4.628;2023-05-07T12:40:56;18.42;;;10.80;;
24751;SDS011;27246;52.376;4.628;2023-05-07T12:45:59;20.08;;;12.43;;
24751;SDS011;27246;52.376;4.628;2023-05-07T12:51:03;24.05;;;20.73;;
24751;SDS011;27246;52.376;4.628;2023-05-07T12:56:07;21.45;;;17.63;;
24751;SDS011;27246;52.376;4.628;2023-05-07T13:01:09;22.13;;;19.23;;
24751;SDS011;27246;52.376;4.628;2023-05-07T13:06:11;21.15;;;17.83;;
24751;SDS011;27246;52.376;4.628;2023-05-07T13:11:15;21.15;;;17.38;;
24751;SDS011;27246;52.376;4.628;2023-05-07T13:16:17;20.98;;;17.33;;
24751;SDS011;27246;52.376;4.628;2023-05-07T13:21:22;20.23;;;16.73;;
24751;SDS011;27246;52.376;4.628;2023-05-07T13:26:24;24.90;;;19.52;;
24751;SDS011;27246;52.376;4.628;2023-05-07T13:31:27;21.10;;;18.60;;
24751;SDS011;27246;52.376;4.628;2023-05-07T13:36:30;29.23;;;21.05;;
24751;SDS011;27246;52.376;4.628;2023-05-07T13:41:34;19.77;;;15.70;;
24751;SDS011;27246;52.376;4.628;2023-05-07T13:46:36;20.73;;;18.52;;
24751;SDS011;27246;52.376;4.628;2023-05-07T13:51:38;18.63;;;16.63;;
24751;SDS011;27246;52.376;4.628;2023-05-07T13:56:39;20.70;;;15.98;;
24751;SDS011;27246;52.376;4.628;2023-05-07T14:01:41;16.52;;;11.50;;
24751;SDS011;27246;52.376;4.628;2023-05-07T14:06:43;18.75;;;13.20;;
24751;SDS011;27246;52.376;4.628;2023-05-07T14:11:44;15.50;;;12.10;;
24751;SDS011;27246;52.376;4.628;2023-05-07T14:16:48;17.23;;;12.15;;
24751;SDS011;27246;52.376;4.628;2023-05-07T14:21:52;13.10;;;10.38;;
24751;SDS011;27246;52.376;4.628;2023-05-07T14:26:54;15.30;;;10.45;;
24751;SDS011;27246;52.376;4.628;2023-05-07T14:31:56;14.93;;;9.90;;
24751;SDS011;27246;52.376;4.628;2023-05-07T14:36:58;20.65;;;12.68;;
24751;SDS011;27246;52.376;4.628;2023-05-07T14:42:00;21.27;;;14.80;;
24751;SDS011;27246;52.376;4.628;2023-05-07T14:47:02;24.33;;;16.23;;
24751;SDS011;27246;52.376;4.628;2023-05-07T14:52:04;23.00;;;17.90;;
24751;SDS011;27246;52.376;4.628;2023-05-07T14:57:08;28.65;;;23.00;;
24751;SDS011;27246;52.376;4.628;2023-05-07T15:02:11;33.80;;;28.35;;
24751;SDS011;27246;52.376;4.628;2023-05-07T15:07:14;24.05;;;21.50;;
24751;SDS011;27246;52.376;4.628;2023-05-07T15:12:16;24.35;;;21.88;;
24751;SDS011;27246;52.376;4.628;2023-05-07T15:17:18;23.88;;;21.58;;
24751;SDS011;27246;52.376;4.628;2023-05-07T15:22:20;21.83;;;19.52;;
24751;SDS011;27246;52.376;4.628;2023-05-07T15:27:25;23.55;;;20.80;;
24751;SDS011;27246;52.376;4.628;2023-05-07T15:32:27;22.95;;;20.60;;
24751;SDS011;27246;52.376;4.628;2023-05-07T15:37:30;22.02;;;19.75;;
24751;SDS011;27246;52.376;4.628;2023-05-07T15:42:32;22.08;;;19.77;;
24751;SDS011;27246;52.376;4.628;2023-05-07T15:47:34;20.65;;;18.48;;
24751;SDS011;27246;52.376;4.628;2023-05-07T15:52:36;22.98;;;18.02;;
24751;SDS011;27246;52.376;4.628;2023-05-07T15:57:39;19.60;;;17.52;;
24751;SDS011;27246;52.376;4.628;2023-05-07T16:02:41;18.50;;;15.82;;
24751;SDS011;27246;52.376;4.628;2023-05-07T16:07:43;16.98;;;15.18;;
24751;SDS011;27246;52.376;4.628;2023-05-07T16:12:44;24.70;;;22.02;;
24751;SDS011;27246;52.376;4.628;2023-05-07T16:17:46;25.27;;;22.58;;
24751;SDS011;27246;52.376;4.628;2023-05-07T16:22:53;27.77;;;23.63;;
24751;SDS011;27246;52.376;4.628;2023-05-07T16:27:55;28.75;;;22.60;;
24751;SDS011;27246;52.376;4.628;2023-05-07T16:32:57;33.95;;;23.33;;
24751;SDS011;27246;52.376;4.628;2023-05-07T16:37:59;27.58;;;23.20;;
24751;SDS011;27246;52.376;4.628;2023-05-07T16:43:00;26.85;;;23.83;;
24751;SDS011;27246;52.376;4.628;2023-05-07T16:48:04;30.65;;;24.00;;
24751;SDS011;27246;52.376;4.628;2023-05-07T16:53:06;32.50;;;25.98;;
24751;SDS011;27246;52.376;4.628;2023-05-07T16:58:08;35.45;;;29.67;;
24751;SDS011;27246;52.376;4.628;2023-05-07T17:03:11;36.28;;;31.00;;
24751;SDS011;27246;52.376;4.628;2023-05-07T17:08:13;34.70;;;31.15;;
24751;SDS011;27246;52.376;4.628;2023-05-07T17:13:15;36.35;;;31.33;;
24751;SDS011;27246;52.376;4.628;2023-05-07T17:18:16;33.90;;;30.00;;
24751;SDS011;27246;52.376;4.628;2023-05-07T17:23:18;36.90;;;33.05;;
24751;SDS011;27246;52.376;4.628;2023-05-07T17:28:21;35.70;;;31.83;;
24751;SDS011;27246;52.376;4.628;2023-05-07T17:33:22;37.78;;;32.58;;
24751;SDS011;27246;52.376;4.628;2023-05-07T17:38:24;40.33;;;33.53;;
24751;SDS011;27246;52.376;4.628;2023-05-07T17:43:26;39.95;;;32.35;;
24751;SDS011;27246;52.376;4.628;2023-05-07T17:48:28;36.35;;;32.42;;
24751;SDS011;27246;52.376;4.628;2023-05-07T17:53:29;34.60;;;31.00;;
24751;SDS011;27246;52.376;4.628;2023-05-07T17:58:31;38.75;;;32.75;;
24751;SDS011;27246;52.376;4.628;2023-05-07T18:03:36;38.72;;;32.33;;
24751;SDS011;27246;52.376;4.628;2023-05-07T18:08:38;38.13;;;33.80;;
24751;SDS011;27246;52.376;4.628;2023-05-07T18:13:40;40.22;;;34.83;;
24751;SDS011;27246;52.376;4.628;2023-05-07T18:18:41;36.90;;;32.90;;
24751;SDS011;27246;52.376;4.628;2023-05-07T18:23:44;38.80;;;34.60;;
24751;SDS011;27246;52.376;4.628;2023-05-07T18:28:46;39.35;;;32.80;;
24751;SDS011;27246;52.376;4.628;2023-05-07T18:33:51;37.50;;;33.17;;
24751;SDS011;27246;52.376;4.628;2023-05-07T18:38:53;39.45;;;33.85;;
24751;SDS011;27246;52.376;4.628;2023-05-07T18:43:55;39.08;;;32.83;;
24751;SDS011;27246;52.376;4.628;2023-05-07T18:48:57;36.88;;;32.65;;
24751;SDS011;27246;52.376;4.628;2023-05-07T18:53:58;38.38;;;32.33;;
24751;SDS011;27246;52.376;4.628;2023-05-07T18:59:02;35.25;;;31.35;;
24751;SDS011;27246;52.376;4.628;2023-05-07T19:04:04;37.05;;;31.95;;
24751;SDS011;27246;52.376;4.628;2023-05-07T19:09:05;39.50;;;35.25;;
24751;SDS011;27246;52.376;4.628;2023-05-07T19:14:07;36.92;;;32.92;;
24751;SDS011;27246;52.376;4.628;2023-05-07T19:19:11;38.35;;;33.45;;
24751;SDS011;27246;52.376;4.628;2023-05-07T19:24:12;37.47;;;33.47;;
24751;SDS011;27246;52.376;4.628;2023-05-07T19:29:16;38.45;;;34.00;;
24751;SDS011;27246;52.376;4.628;2023-05-07T19:34:19;38.83;;;34.25;;
24751;SDS011;27246;52.376;4.628;2023-05-07T19:39:22;37.40;;;33.35;;
24751;SDS011;27246;52.376;4.628;2023-05-07T19:44:24;40.38;;;33.72;;
24751;SDS011;27246;52.376;4.628;2023-05-07T19:49:26;36.45;;;32.55;;
24751;SDS011;27246;52.376;4.628;2023-05-07T19:54:28;36.78;;;32.83;;
24751;SDS011;27246;52.376;4.628;2023-05-07T19:59:30;38.33;;;33.85;;
24751;SDS011;27246;52.376;4.628;2023-05-07T20:04:33;38.30;;;33.40;;
24751;SDS011;27246;52.376;4.628;2023-05-07T20:09:38;38.30;;;34.17;;
24751;SDS011;27246;52.376;4.628;2023-05-07T20:14:40;37.60;;;33.55;;
24751;SDS011;27246;52.376;4.628;2023-05-07T20:19:41;43.35;;;34.72;;
24751;SDS011;27246;52.376;4.628;2023-05-07T20:24:43;41.10;;;34.75;;
24751;SDS011;27246;52.376;4.628;2023-05-07T20:29:45;39.10;;;34.08;;
24751;SDS011;27246;52.376;4.628;2023-05-07T20:34:47;38.92;;;34.08;;
24751;SDS011;27246;52.376;4.628;2023-05-07T20:39:48;41.55;;;34.65;;
24751;SDS011;27246;52.376;4.628;2023-05-07T20:44:52;40.05;;;35.92;;
24751;SDS011;27246;52.376;4.628;2023-05-07T20:49:56;41.30;;;36.85;;
24751;SDS011;27246;52.376;4.628;2023-05-07T20:54:58;43.25;;;37.65;;
24751;SDS011;27246;52.376;4.628;2023-05-07T21:00:00;40.10;;;35.78;;
24751;SDS011;27246;52.376;4.628;2023-05-07T21:05:03;40.00;;;35.85;;
24751;SDS011;27246;52.376;4.628;2023-05-07T21:10:05;42.38;;;37.88;;
24751;SDS011;27246;52.376;4.628;2023-05-07T21:15:07;42.60;;;37.65;;
24751;SDS011;27246;52.376;4.628;2023-05-07T21:20:09;42.55;;;36.83;;
24751;SDS011;27246;52.376;4.628;2023-05-07T21:25:11;39.15;;;34.00;;
24751;SDS011;27246;52.376;4.628;2023-05-07T21:30:14;41.22;;;36.67;;
24751;SDS011;27246;52.376;4.628;2023-05-07T21:35:16;39.47;;;35.35;;
24751;SDS011;27246;52.376;4.628;2023-05-07T21:40:18;44.70;;;36.05;;
24751;SDS011;27246;52.376;4.628;2023-05-07T21:45:20;41.78;;;37.22;;
24751;SDS011;27246;52.376;4.628;2023-05-07T21:50:25;39.85;;;35.58;;
24751;SDS011;27246;52.376;4.628;2023-05-07T21:55:27;39.08;;;34.90;;
24751;SDS011;27246;52.376;4.628;2023-05-07T22:00:28;39.88;;;35.60;;
24751;SDS011;27246;52.376;4.628;2023-05-07T22:05:31;38.50;;;34.47;;
24751;SDS011;27246;52.376;4.628;2023-05-07T22:10:33;38.47;;;34.40;;
24751;SDS011;27246;52.376;4.628;2023-05-07T22:15:37;37.97;;;34.08;;
24751;SDS011;27246;52.376;4.628;2023-05-07T22:20:56;37.60;;;33.03;;
24751;SDS011;27246;52.376;4.628;2023-05-07T22:25:58;38.10;;;34.10;;
24751;SDS011;27246;52.376;4.628;2023-05-07T22:31:00;34.85;;;30.95;;
24751;SDS011;27246;52.376;4.628;2023-05-07T22:36:01;35.65;;;31.58;;
24751;SDS011;27246;52.376;4.628;2023-05-07T22:41:03;34.85;;;30.35;;
24751;SDS011;27246;52.376;4.628;2023-05-07T22:46:06;35.05;;;30.88;;
24751;SDS011;27246;52.376;4.628;2023-05-07T22:51:14;34.40;;;30.70;;
24751;SDS011;27246;52.376;4.628;2023-05-07T22:56:16;36.60;;;32.72;;
24751;SDS011;27246;52.376;4.628;2023-05-07T23:01:17;42.05;;;36.28;;
24751;SDS011;27246;52.376;4.628;2023-05-07T23:06:20;39.67;;;34.88;;
24751;SDS011;27246;52.376;4.628;2023-05-07T23:11:23;41.55;;;36.33;;
24751;SDS011;27246;52.376;4.628;2023-05-07T23:16:24;44.97;;;37.85;;
24751;SDS011;27246;52.376;4.628;2023-05-07T23:21:26;49.13;;;39.67;;
24751;SDS011;27246;52.376;4.628;2023-05-07T23:26:28;46.78;;;41.17;;
24751;SDS011;27246;52.376;4.628;2023-05-07T23:31:29;44.10;;;37.05;;
24751;SDS011;27246;52.376;4.628;2023-05-07T23:36:31;45.55;;;37.88;;
24751;SDS011;27246;52.376;4.628;2023-05-07T23:41:33;44.10;;;37.42;;
24751;SDS011;27246;52.376;4.628;2023-05-07T23:46:35;41.47;;;35.88;;
24751;SDS011;27246;52.376;4.628;2023-05-07T23:51:37;38.75;;;34.17;;
24751;SDS011;27246;52.376;4.628;2023-05-07T23:56:39;41.17;;;35.47;;
